sensor_id;sensor_type;location;lat;lon;timestamp;P1;durP1;ratioP1;P2;durP2;ratioP2
40515;SDS011;26216;53.724;9.898;2023-02-01T00:02:21;26.60;;;4.90;;
40515;SDS011;26216;53.724;9.898;2023-02-01T00:04:47;19.45;;;4.22;;
40515;SDS011;26216;53.724;9.898;2023-02-01T00:07:17;23.75;;;5.03;;
40515;SDS011;26216;53.724;9.898;2023-02-01T00:09:49;18.50;;;3.78;;
40515;SDS011;26216;53.724;9.898;2023-02-01T00:12:38;21.55;;;3.83;;
40515;SDS011;26216;53.724;9.898;2023-02-01T00:15:10;25.55;;;4.00;;
40515;SDS011;26216;53.724;9.898;2023-02-01T00:17:39;15.52;;;3.35;;
40515;SDS011;26216;53.724;9.898;2023-02-01T00:20:05;18.83;;;4.30;;
40515;SDS011;26216;53.724;9.898;2023-02-01T00:22:33;24.92;;;4.50;;
40515;SDS011;26216;53.724;9.898;2023-02-01T00:25:06;16.65;;;3.55;;
40515;SDS011;26216;53.724;9.898;2023-02-01T00:27:35;19.95;;;3.97;;
40515;SDS011;26216;53.724;9.898;2023-02-01T00:30:02;23.83;;;4.05;;
40515;SDS011;26216;53.724;9.898;2023-02-01T00:32:30;19.40;;;4.05;;
40515;SDS011;26216;53.724;9.898;2023-02-01T00:35:02;27.63;;;5.10;;
40515;SDS011;26216;53.724;9.898;2023-02-01T00:37:42;22.67;;;4.40;;
40515;SDS011;26216;53.724;9.898;2023-02-01T00:40:14;24.67;;;4.97;;
40515;SDS011;26216;53.724;9.898;2023-02-01T00:42:42;23.88;;;4.78;;
40515;SDS011;26216;53.724;9.898;2023-02-01T00:45:09;20.35;;;4.88;;
40515;SDS011;26216;53.724;9.898;2023-02-01T00:47:36;24.20;;;5.13;;
40515;SDS011;26216;53.724;9.898;2023-02-01T00:50:09;24.58;;;5.47;;
40515;SDS011;26216;53.724;9.898;2023-02-01T00:52:40;23.15;;;5.10;;
40515;SDS011;26216;53.724;9.898;2023-02-01T00:55:06;23.98;;;4.63;;
40515;SDS011;26216;53.724;9.898;2023-02-01T00:57:35;17.92;;;3.78;;
40515;SDS011;26216;53.724;9.898;2023-02-01T01:00:03;22.65;;;4.82;;
40515;SDS011;26216;53.724;9.898;2023-02-01T01:02:30;26.33;;;5.22;;
40515;SDS011;26216;53.724;9.898;2023-02-01T01:04:56;29.77;;;5.13;;
40515;SDS011;26216;53.724;9.898;2023-02-01T01:07:28;23.67;;;4.90;;
40515;SDS011;26216;53.724;9.898;2023-02-01T01:09:54;23.50;;;4.05;;
40515;SDS011;26216;53.724;9.898;2023-02-01T01:12:20;24.30;;;5.25;;
40515;SDS011;26216;53.724;9.898;2023-02-01T01:14:46;23.95;;;4.90;;
40515;SDS011;26216;53.724;9.898;2023-02-01T01:17:12;20.15;;;4.93;;
40515;SDS011;26216;53.724;9.898;2023-02-01T01:19:38;22.55;;;5.22;;
40515;SDS011;26216;53.724;9.898;2023-02-01T01:22:04;30.65;;;5.78;;
40515;SDS011;26216;53.724;9.898;2023-02-01T01:24:31;28.67;;;6.15;;
40515;SDS011;26216;53.724;9.898;2023-02-01T01:27:06;21.40;;;5.32;;
40515;SDS011;26216;53.724;9.898;2023-02-01T01:29:32;27.98;;;5.15;;
40515;SDS011;26216;53.724;9.898;2023-02-01T01:32:01;17.42;;;4.85;;
40515;SDS011;26216;53.724;9.898;2023-02-01T01:34:29;27.25;;;5.38;;
40515;SDS011;26216;53.724;9.898;2023-02-01T01:37:12;22.67;;;5.18;;
40515;SDS011;26216;53.724;9.898;2023-02-01T01:39:38;21.40;;;5.40;;
40515;SDS011;26216;53.724;9.898;2023-02-01T01:42:04;24.13;;;6.13;;
40515;SDS011;26216;53.724;9.898;2023-02-01T01:47:35;30.05;;;5.32;;
40515;SDS011;26216;53.724;9.898;2023-02-01T01:50:08;21.58;;;4.78;;
40515;SDS011;26216;53.724;9.898;2023-02-01T01:52:37;24.73;;;5.15;;
40515;SDS011;26216;53.724;9.898;2023-02-01T01:55:06;35.22;;;5.82;;
40515;SDS011;26216;53.724;9.898;2023-02-01T01:57:34;20.27;;;4.63;;
40515;SDS011;26216;53.724;9.898;2023-02-01T02:00:08;21.73;;;4.68;;
40515;SDS011;26216;53.724;9.898;2023-02-01T02:02:42;22.60;;;5.15;;
40515;SDS011;26216;53.724;9.898;2023-02-01T02:05:13;19.85;;;4.18;;
40515;SDS011;26216;53.724;9.898;2023-02-01T02:07:41;23.90;;;5.40;;
40515;SDS011;26216;53.724;9.898;2023-02-01T02:10:12;26.40;;;5.57;;
40515;SDS011;26216;53.724;9.898;2023-02-01T02:12:42;18.73;;;4.68;;
40515;SDS011;26216;53.724;9.898;2023-02-01T02:15:11;28.75;;;5.43;;
40515;SDS011;26216;53.724;9.898;2023-02-01T02:39:49;36.58;;;5.75;;
40515;SDS011;26216;53.724;9.898;2023-02-01T02:42:29;23.15;;;4.68;;
40515;SDS011;26216;53.724;9.898;2023-02-01T02:45:23;18.02;;;3.90;;
40515;SDS011;26216;53.724;9.898;2023-02-01T02:51:28;16.58;;;3.85;;
40515;SDS011;26216;53.724;9.898;2023-02-01T02:54:34;18.85;;;3.65;;
40515;SDS011;26216;53.724;9.898;2023-02-01T03:00:22;18.52;;;3.90;;
40515;SDS011;26216;53.724;9.898;2023-02-01T03:03:19;24.98;;;5.47;;
40515;SDS011;26216;53.724;9.898;2023-02-01T03:06:11;18.98;;;4.45;;
40515;SDS011;26216;53.724;9.898;2023-02-01T03:08:57;23.58;;;4.75;;
40515;SDS011;26216;53.724;9.898;2023-02-01T03:11:25;15.15;;;3.95;;
40515;SDS011;26216;53.724;9.898;2023-02-01T03:14:16;16.58;;;3.30;;
40515;SDS011;26216;53.724;9.898;2023-02-01T03:16:53;15.50;;;3.53;;
40515;SDS011;26216;53.724;9.898;2023-02-01T03:19:29;16.58;;;3.58;;
40515;SDS011;26216;53.724;9.898;2023-02-01T03:22:11;17.13;;;4.13;;
40515;SDS011;26216;53.724;9.898;2023-02-01T03:25:10;27.73;;;5.35;;
40515;SDS011;26216;53.724;9.898;2023-02-01T03:27:51;14.43;;;3.33;;
40515;SDS011;26216;53.724;9.898;2023-02-01T03:30:42;20.08;;;4.10;;
40515;SDS011;26216;53.724;9.898;2023-02-01T03:33:23;20.08;;;4.78;;
40515;SDS011;26216;53.724;9.898;2023-02-01T03:36:05;27.70;;;5.50;;
40515;SDS011;26216;53.724;9.898;2023-02-01T03:38:57;12.02;;;3.25;;
40515;SDS011;26216;53.724;9.898;2023-02-01T03:41:51;19.85;;;4.70;;
40515;SDS011;26216;53.724;9.898;2023-02-01T03:46:59;18.08;;;4.03;;
40515;SDS011;26216;53.724;9.898;2023-02-01T03:49:47;20.08;;;3.88;;
40515;SDS011;26216;53.724;9.898;2023-02-01T03:52:47;30.42;;;5.25;;
40515;SDS011;26216;53.724;9.898;2023-02-01T03:55:19;12.88;;;2.53;;
40515;SDS011;26216;53.724;9.898;2023-02-01T04:00:34;16.90;;;4.07;;
40515;SDS011;26216;53.724;9.898;2023-02-01T04:03:00;18.45;;;3.97;;
40515;SDS011;26216;53.724;9.898;2023-02-01T04:05:36;15.65;;;3.28;;
40515;SDS011;26216;53.724;9.898;2023-02-01T04:08:25;12.52;;;3.20;;
40515;SDS011;26216;53.724;9.898;2023-02-01T04:11:14;15.00;;;3.97;;
40515;SDS011;26216;53.724;9.898;2023-02-01T04:14:00;13.88;;;3.20;;
40515;SDS011;26216;53.724;9.898;2023-02-01T04:16:41;14.77;;;2.67;;
40515;SDS011;26216;53.724;9.898;2023-02-01T04:19:10;13.00;;;3.50;;
40515;SDS011;26216;53.724;9.898;2023-02-01T04:21:51;12.77;;;2.88;;
40515;SDS011;26216;53.724;9.898;2023-02-01T04:24:38;11.85;;;3.22;;
40515;SDS011;26216;53.724;9.898;2023-02-01T04:27:13;11.30;;;2.58;;
40515;SDS011;26216;53.724;9.898;2023-02-01T04:29:48;14.88;;;2.88;;
40515;SDS011;26216;53.724;9.898;2023-02-01T04:32:18;10.00;;;2.60;;
40515;SDS011;26216;53.724;9.898;2023-02-01T04:34:48;12.02;;;2.55;;
40515;SDS011;26216;53.724;9.898;2023-02-01T04:37:23;16.13;;;2.75;;
40515;SDS011;26216;53.724;9.898;2023-02-01T04:40:00;9.82;;;2.75;;
40515;SDS011;26216;53.724;9.898;2023-02-01T04:42:45;14.98;;;2.45;;
40515;SDS011;26216;53.724;9.898;2023-02-01T04:45:20;16.40;;;3.20;;
40515;SDS011;26216;53.724;9.898;2023-02-01T04:48:03;12.30;;;2.47;;
40515;SDS011;26216;53.724;9.898;2023-02-01T04:50:32;10.90;;;2.30;;
40515;SDS011;26216;53.724;9.898;2023-02-01T04:53:14;10.45;;;2.75;;
40515;SDS011;26216;53.724;9.898;2023-02-01T04:55:43;12.43;;;2.10;;
40515;SDS011;26216;53.724;9.898;2023-02-01T04:58:13;10.93;;;2.95;;
40515;SDS011;26216;53.724;9.898;2023-02-01T05:00:39;7.68;;;1.92;;
40515;SDS011;26216;53.724;9.898;2023-02-01T05:03:07;6.13;;;1.67;;
40515;SDS011;26216;53.724;9.898;2023-02-01T05:05:41;10.18;;;2.05;;
40515;SDS011;26216;53.724;9.898;2023-02-01T05:08:07;5.57;;;1.27;;
40515;SDS011;26216;53.724;9.898;2023-02-01T05:10:35;9.05;;;1.70;;
40515;SDS011;26216;53.724;9.898;2023-02-01T05:13:07;8.48;;;1.80;;
40515;SDS011;26216;53.724;9.898;2023-02-01T05:16:04;9.38;;;1.73;;
40515;SDS011;26216;53.724;9.898;2023-02-01T05:18:45;4.43;;;1.48;;
40515;SDS011;26216;53.724;9.898;2023-02-01T05:21:18;7.90;;;1.50;;
40515;SDS011;26216;53.724;9.898;2023-02-01T05:23:45;6.03;;;1.20;;
40515;SDS011;26216;53.724;9.898;2023-02-01T05:26:36;6.90;;;1.50;;
40515;SDS011;26216;53.724;9.898;2023-02-01T05:29:09;5.75;;;1.23;;
40515;SDS011;26216;53.724;9.898;2023-02-01T05:31:48;5.82;;;1.10;;
40515;SDS011;26216;53.724;9.898;2023-02-01T05:34:35;5.68;;;1.30;;
40515;SDS011;26216;53.724;9.898;2023-02-01T05:37:09;5.82;;;1.23;;
40515;SDS011;26216;53.724;9.898;2023-02-01T05:39:36;2.65;;;0.85;;
40515;SDS011;26216;53.724;9.898;2023-02-01T05:42:05;5.70;;;1.20;;
40515;SDS011;26216;53.724;9.898;2023-02-01T05:44:47;2.92;;;0.82;;
40515;SDS011;26216;53.724;9.898;2023-02-01T05:47:36;3.33;;;0.77;;
40515;SDS011;26216;53.724;9.898;2023-02-01T05:50:16;4.53;;;0.70;;
40515;SDS011;26216;53.724;9.898;2023-02-01T05:52:47;6.75;;;1.20;;
40515;SDS011;26216;53.724;9.898;2023-02-01T05:55:15;4.05;;;1.10;;
40515;SDS011;26216;53.724;9.898;2023-02-01T05:57:46;3.35;;;0.80;;
40515;SDS011;26216;53.724;9.898;2023-02-01T06:00:15;2.22;;;0.68;;
40515;SDS011;26216;53.724;9.898;2023-02-01T06:02:42;2.70;;;0.75;;
40515;SDS011;26216;53.724;9.898;2023-02-01T06:05:12;3.85;;;0.70;;
40515;SDS011;26216;53.724;9.898;2023-02-01T06:07:41;2.42;;;0.70;;
40515;SDS011;26216;53.724;9.898;2023-02-01T06:10:10;3.55;;;0.70;;
40515;SDS011;26216;53.724;9.898;2023-02-01T06:12:43;3.35;;;0.90;;
40515;SDS011;26216;53.724;9.898;2023-02-01T06:15:19;2.83;;;0.63;;
40515;SDS011;26216;53.724;9.898;2023-02-01T06:17:50;2.93;;;0.70;;
40515;SDS011;26216;53.724;9.898;2023-02-01T06:20:23;3.35;;;0.60;;
40515;SDS011;26216;53.724;9.898;2023-02-01T06:22:57;3.28;;;0.88;;
40515;SDS011;26216;53.724;9.898;2023-02-01T06:25:34;2.17;;;0.60;;
40515;SDS011;26216;53.724;9.898;2023-02-01T06:28:08;5.22;;;1.10;;
40515;SDS011;26216;53.724;9.898;2023-02-01T06:30:43;5.07;;;1.20;;
40515;SDS011;26216;53.724;9.898;2023-02-01T06:33:16;5.32;;;1.13;;
40515;SDS011;26216;53.724;9.898;2023-02-01T06:35:49;5.78;;;1.35;;
40515;SDS011;26216;53.724;9.898;2023-02-01T06:38:26;5.03;;;1.15;;
40515;SDS011;26216;53.724;9.898;2023-02-01T06:40:57;2.78;;;0.80;;
40515;SDS011;26216;53.724;9.898;2023-02-01T06:43:30;4.03;;;0.90;;
40515;SDS011;26216;53.724;9.898;2023-02-01T06:46:03;7.15;;;1.40;;
40515;SDS011;26216;53.724;9.898;2023-02-01T06:48:36;6.03;;;1.40;;
40515;SDS011;26216;53.724;9.898;2023-02-01T06:51:31;7.22;;;1.77;;
40515;SDS011;26216;53.724;9.898;2023-02-01T06:54:12;5.40;;;1.23;;
40515;SDS011;26216;53.724;9.898;2023-02-01T06:56:44;7.13;;;1.40;;
40515;SDS011;26216;53.724;9.898;2023-02-01T06:59:17;7.45;;;1.45;;
40515;SDS011;26216;53.724;9.898;2023-02-01T07:01:48;8.38;;;2.30;;
40515;SDS011;26216;53.724;9.898;2023-02-01T07:04:27;10.13;;;2.10;;
40515;SDS011;26216;53.724;9.898;2023-02-01T07:06:58;8.63;;;1.88;;
40515;SDS011;26216;53.724;9.898;2023-02-01T07:09:28;11.20;;;2.72;;
40515;SDS011;26216;53.724;9.898;2023-02-01T07:11:58;13.20;;;2.85;;
40515;SDS011;26216;53.724;9.898;2023-02-01T07:14:33;16.65;;;4.03;;
40515;SDS011;26216;53.724;9.898;2023-02-01T07:17:13;21.13;;;3.90;;
40515;SDS011;26216;53.724;9.898;2023-02-01T07:19:47;15.57;;;3.85;;
40515;SDS011;26216;53.724;9.898;2023-02-01T07:22:20;23.13;;;4.88;;
40515;SDS011;26216;53.724;9.898;2023-02-01T07:25:11;21.63;;;4.00;;
40515;SDS011;26216;53.724;9.898;2023-02-01T07:27:55;23.35;;;4.35;;
40515;SDS011;26216;53.724;9.898;2023-02-01T07:30:26;17.42;;;3.88;;
40515;SDS011;26216;53.724;9.898;2023-02-01T07:32:56;19.60;;;3.97;;
40515;SDS011;26216;53.724;9.898;2023-02-01T07:35:27;17.10;;;3.05;;
40515;SDS011;26216;53.724;9.898;2023-02-01T07:37:59;26.27;;;6.00;;
40515;SDS011;26216;53.724;9.898;2023-02-01T07:40:29;16.95;;;3.83;;
40515;SDS011;26216;53.724;9.898;2023-02-01T07:43:00;20.10;;;4.22;;
40515;SDS011;26216;53.724;9.898;2023-02-01T07:45:35;21.63;;;4.20;;
40515;SDS011;26216;53.724;9.898;2023-02-01T07:48:08;18.85;;;3.55;;
40515;SDS011;26216;53.724;9.898;2023-02-01T07:50:58;19.38;;;3.55;;
40515;SDS011;26216;53.724;9.898;2023-02-01T07:53:30;18.50;;;4.40;;
40515;SDS011;26216;53.724;9.898;2023-02-01T07:56:00;18.35;;;4.18;;
40515;SDS011;26216;53.724;9.898;2023-02-01T07:58:30;19.52;;;3.63;;
40515;SDS011;26216;53.724;9.898;2023-02-01T08:01:01;14.75;;;3.35;;
40515;SDS011;26216;53.724;9.898;2023-02-01T08:03:57;18.65;;;3.95;;
40515;SDS011;26216;53.724;9.898;2023-02-01T08:06:35;16.23;;;3.63;;
40515;SDS011;26216;53.724;9.898;2023-02-01T08:09:10;21.05;;;3.78;;
40515;SDS011;26216;53.724;9.898;2023-02-01T08:11:47;24.65;;;4.60;;
40515;SDS011;26216;53.724;9.898;2023-02-01T08:14:20;23.83;;;4.60;;
40515;SDS011;26216;53.724;9.898;2023-02-01T08:16:49;29.88;;;4.93;;
40515;SDS011;26216;53.724;9.898;2023-02-01T08:19:18;21.00;;;4.25;;
40515;SDS011;26216;53.724;9.898;2023-02-01T08:21:48;16.98;;;3.25;;
40515;SDS011;26216;53.724;9.898;2023-02-01T08:24:18;20.70;;;3.83;;
40515;SDS011;26216;53.724;9.898;2023-02-01T08:26:48;23.45;;;4.07;;
40515;SDS011;26216;53.724;9.898;2023-02-01T08:29:18;21.23;;;3.92;;
40515;SDS011;26216;53.724;9.898;2023-02-01T08:32:05;24.52;;;4.70;;
40515;SDS011;26216;53.724;9.898;2023-02-01T08:34:35;21.92;;;4.45;;
40515;SDS011;26216;53.724;9.898;2023-02-01T08:37:07;25.55;;;5.00;;
40515;SDS011;26216;53.724;9.898;2023-02-01T08:39:42;19.67;;;3.72;;
40515;SDS011;26216;53.724;9.898;2023-02-01T08:42:12;17.05;;;4.30;;
40515;SDS011;26216;53.724;9.898;2023-02-01T08:45:05;15.13;;;3.17;;
40515;SDS011;26216;53.724;9.898;2023-02-01T08:47:42;15.45;;;2.78;;
40515;SDS011;26216;53.724;9.898;2023-02-01T08:50:13;12.60;;;3.10;;
40515;SDS011;26216;53.724;9.898;2023-02-01T08:52:42;13.82;;;3.10;;
40515;SDS011;26216;53.724;9.898;2023-02-01T08:55:12;12.77;;;3.00;;
40515;SDS011;26216;53.724;9.898;2023-02-01T08:57:43;22.75;;;3.58;;
40515;SDS011;26216;53.724;9.898;2023-02-01T09:02:46;16.15;;;2.72;;
40515;SDS011;26216;53.724;9.898;2023-02-01T09:05:21;18.83;;;3.50;;
40515;SDS011;26216;53.724;9.898;2023-02-01T09:07:55;12.60;;;3.88;;
40515;SDS011;26216;53.724;9.898;2023-02-01T09:10:23;11.18;;;3.10;;
40515;SDS011;26216;53.724;9.898;2023-02-01T09:15:32;16.70;;;3.20;;
40515;SDS011;26216;53.724;9.898;2023-02-01T09:18:06;17.00;;;4.13;;
40515;SDS011;26216;53.724;9.898;2023-02-01T09:20:41;21.30;;;4.15;;
40515;SDS011;26216;53.724;9.898;2023-02-01T09:23:13;24.35;;;4.68;;
40515;SDS011;26216;53.724;9.898;2023-02-01T09:25:44;12.23;;;3.42;;
40515;SDS011;26216;53.724;9.898;2023-02-01T09:28:18;19.60;;;3.97;;
40515;SDS011;26216;53.724;9.898;2023-02-01T09:30:59;19.67;;;4.22;;
40515;SDS011;26216;53.724;9.898;2023-02-01T09:33:46;12.57;;;3.15;;
40515;SDS011;26216;53.724;9.898;2023-02-01T09:36:27;22.50;;;3.72;;
40515;SDS011;26216;53.724;9.898;2023-02-01T09:39:00;16.65;;;3.30;;
40515;SDS011;26216;53.724;9.898;2023-02-01T09:47:09;16.55;;;3.33;;
40515;SDS011;26216;53.724;9.898;2023-02-01T09:49:51;26.20;;;5.38;;
40515;SDS011;26216;53.724;9.898;2023-02-01T09:52:48;18.70;;;3.72;;
40515;SDS011;26216;53.724;9.898;2023-02-01T09:55:50;21.58;;;4.20;;
40515;SDS011;26216;53.724;9.898;2023-02-01T10:01:21;14.25;;;3.38;;
40515;SDS011;26216;53.724;9.898;2023-02-01T10:07:12;17.63;;;4.45;;
40515;SDS011;26216;53.724;9.898;2023-02-01T10:16:31;30.38;;;4.45;;
40515;SDS011;26216;53.724;9.898;2023-02-01T10:23:06;14.27;;;3.20;;
40515;SDS011;26216;53.724;9.898;2023-02-01T10:26:02;24.00;;;5.38;;
40515;SDS011;26216;53.724;9.898;2023-02-01T10:28:51;20.80;;;3.88;;
40515;SDS011;26216;53.724;9.898;2023-02-01T10:31:37;23.92;;;5.53;;
40515;SDS011;26216;53.724;9.898;2023-02-01T10:34:25;22.42;;;3.97;;
40515;SDS011;26216;53.724;9.898;2023-02-01T10:37:23;15.68;;;3.40;;
40515;SDS011;26216;53.724;9.898;2023-02-01T10:40:29;18.58;;;3.85;;
40515;SDS011;26216;53.724;9.898;2023-02-01T10:43:13;12.90;;;2.95;;
40515;SDS011;26216;53.724;9.898;2023-02-01T10:45:58;12.30;;;3.35;;
40515;SDS011;26216;53.724;9.898;2023-02-01T10:48:43;22.30;;;3.88;;
40515;SDS011;26216;53.724;9.898;2023-02-01T10:51:51;14.00;;;3.17;;
40515;SDS011;26216;53.724;9.898;2023-02-01T10:54:47;18.45;;;3.60;;
40515;SDS011;26216;53.724;9.898;2023-02-01T10:57:34;16.67;;;3.88;;
40515;SDS011;26216;53.724;9.898;2023-02-01T11:00:21;18.65;;;4.22;;
40515;SDS011;26216;53.724;9.898;2023-02-01T11:03:20;16.45;;;4.07;;
40515;SDS011;26216;53.724;9.898;2023-02-01T11:07:03;23.10;;;4.40;;
40515;SDS011;26216;53.724;9.898;2023-02-01T11:09:54;14.45;;;3.40;;
40515;SDS011;26216;53.724;9.898;2023-02-01T11:12:40;18.60;;;4.03;;
40515;SDS011;26216;53.724;9.898;2023-02-01T11:15:24;18.40;;;4.15;;
40515;SDS011;26216;53.724;9.898;2023-02-01T11:18:25;16.95;;;3.53;;
40515;SDS011;26216;53.724;9.898;2023-02-01T11:21:14;21.17;;;4.55;;
40515;SDS011;26216;53.724;9.898;2023-02-01T11:23:41;16.08;;;3.92;;
40515;SDS011;26216;53.724;9.898;2023-02-01T11:29:19;16.52;;;4.18;;
40515;SDS011;26216;53.724;9.898;2023-02-01T11:31:47;15.25;;;3.35;;
40515;SDS011;26216;53.724;9.898;2023-02-01T11:36:41;15.02;;;3.17;;
40515;SDS011;26216;53.724;9.898;2023-02-01T11:41:55;14.35;;;3.25;;
40515;SDS011;26216;53.724;9.898;2023-02-01T11:44:42;20.70;;;4.25;;
40515;SDS011;26216;53.724;9.898;2023-02-01T11:47:29;15.07;;;3.30;;
40515;SDS011;26216;53.724;9.898;2023-02-01T11:50:05;18.42;;;3.42;;
40515;SDS011;26216;53.724;9.898;2023-02-01T11:52:50;14.30;;;3.28;;
40515;SDS011;26216;53.724;9.898;2023-02-01T11:55:30;17.02;;;3.30;;
40515;SDS011;26216;53.724;9.898;2023-02-01T12:08:50;13.40;;;2.53;;
40515;SDS011;26216;53.724;9.898;2023-02-01T12:11:46;9.27;;;2.70;;
40515;SDS011;26216;53.724;9.898;2023-02-01T12:22:56;9.52;;;1.85;;
40515;SDS011;26216;53.724;9.898;2023-02-01T12:28:31;5.50;;;1.00;;
40515;SDS011;26216;53.724;9.898;2023-02-01T12:42:17;1.98;;;0.63;;
40515;SDS011;26216;53.724;9.898;2023-02-01T12:47:48;4.53;;;0.70;;
40515;SDS011;26216;53.724;9.898;2023-02-01T12:50:24;2.97;;;0.70;;
40515;SDS011;26216;53.724;9.898;2023-02-01T12:53:07;3.10;;;0.70;;
40515;SDS011;26216;53.724;9.898;2023-02-01T12:55:56;3.78;;;0.60;;
40515;SDS011;26216;53.724;9.898;2023-02-01T12:58:27;3.60;;;0.60;;
40515;SDS011;26216;53.724;9.898;2023-02-01T13:01:06;2.15;;;0.52;;
40515;SDS011;26216;53.724;9.898;2023-02-01T13:04:08;2.20;;;0.77;;
40515;SDS011;26216;53.724;9.898;2023-02-01T13:12:10;3.53;;;0.95;;
40515;SDS011;26216;53.724;9.898;2023-02-01T13:17:42;5.53;;;0.75;;
40515;SDS011;26216;53.724;9.898;2023-02-01T13:20:24;2.28;;;0.60;;
40515;SDS011;26216;53.724;9.898;2023-02-01T13:22:57;5.70;;;0.80;;
40515;SDS011;26216;53.724;9.898;2023-02-01T13:28:42;8.13;;;1.05;;
40515;SDS011;26216;53.724;9.898;2023-02-01T13:37:02;2.83;;;0.70;;
40515;SDS011;26216;53.724;9.898;2023-02-01T13:44:52;4.35;;;0.77;;
40515;SDS011;26216;53.724;9.898;2023-02-01T13:47:29;4.70;;;0.98;;
40515;SDS011;26216;53.724;9.898;2023-02-01T13:50:03;2.90;;;0.70;;
40515;SDS011;26216;53.724;9.898;2023-02-01T13:52:45;2.53;;;0.85;;
40515;SDS011;26216;53.724;9.898;2023-02-01T13:57:50;4.57;;;0.90;;
40515;SDS011;26216;53.724;9.898;2023-02-01T14:00:26;3.85;;;1.17;;
40515;SDS011;26216;53.724;9.898;2023-02-01T14:03:18;5.47;;;0.93;;
40515;SDS011;26216;53.724;9.898;2023-02-01T14:08:21;4.25;;;1.33;;
40515;SDS011;26216;53.724;9.898;2023-02-01T14:11:05;10.35;;;1.40;;
40515;SDS011;26216;53.724;9.898;2023-02-01T14:13:32;8.10;;;1.42;;
40515;SDS011;26216;53.724;9.898;2023-02-01T14:23:42;8.35;;;1.83;;
40515;SDS011;26216;53.724;9.898;2023-02-01T14:26:24;12.73;;;2.67;;
40515;SDS011;26216;53.724;9.898;2023-02-01T14:31:44;7.33;;;1.50;;
40515;SDS011;26216;53.724;9.898;2023-02-01T14:37:23;7.55;;;1.55;;
40515;SDS011;26216;53.724;9.898;2023-02-01T14:40:03;11.05;;;2.30;;
40515;SDS011;26216;53.724;9.898;2023-02-01T14:42:43;7.78;;;1.80;;
40515;SDS011;26216;53.724;9.898;2023-02-01T14:47:50;8.25;;;1.73;;
40515;SDS011;26216;53.724;9.898;2023-02-01T14:55:50;7.80;;;1.88;;
40515;SDS011;26216;53.724;9.898;2023-02-01T15:01:23;6.35;;;1.25;;
40515;SDS011;26216;53.724;9.898;2023-02-01T15:04:00;8.10;;;1.35;;
40515;SDS011;26216;53.724;9.898;2023-02-01T15:06:39;4.97;;;1.40;;
40515;SDS011;26216;53.724;9.898;2023-02-01T15:09:14;7.20;;;1.30;;
40515;SDS011;26216;53.724;9.898;2023-02-01T15:11:53;8.07;;;1.70;;
40515;SDS011;26216;53.724;9.898;2023-02-01T15:14:19;6.85;;;1.23;;
40515;SDS011;26216;53.724;9.898;2023-02-01T15:16:45;6.93;;;1.50;;
40515;SDS011;26216;53.724;9.898;2023-02-01T15:19:19;8.27;;;1.40;;
40515;SDS011;26216;53.724;9.898;2023-02-01T15:21:50;7.93;;;1.43;;
40515;SDS011;26216;53.724;9.898;2023-02-01T15:24:29;8.02;;;2.40;;
40515;SDS011;26216;53.724;9.898;2023-02-01T15:27:01;11.38;;;2.85;;
40515;SDS011;26216;53.724;9.898;2023-02-01T15:29:29;9.38;;;2.40;;
40515;SDS011;26216;53.724;9.898;2023-02-01T15:31:58;11.15;;;2.80;;
40515;SDS011;26216;53.724;9.898;2023-02-01T15:34:43;13.05;;;4.53;;
40515;SDS011;26216;53.724;9.898;2023-02-01T15:37:12;20.30;;;5.63;;
40515;SDS011;26216;53.724;9.898;2023-02-01T15:42:55;23.38;;;11.25;;
40515;SDS011;26216;53.724;9.898;2023-02-01T15:45:28;19.85;;;6.00;;
40515;SDS011;26216;53.724;9.898;2023-02-01T15:47:58;16.60;;;4.80;;
40515;SDS011;26216;53.724;9.898;2023-02-01T15:50:25;20.80;;;10.13;;
40515;SDS011;26216;53.724;9.898;2023-02-01T15:52:54;29.00;;;16.27;;
40515;SDS011;26216;53.724;9.898;2023-02-01T15:55:39;19.88;;;7.45;;
40515;SDS011;26216;53.724;9.898;2023-02-01T15:58:07;22.17;;;6.25;;
40515;SDS011;26216;53.724;9.898;2023-02-01T16:00:42;24.63;;;8.77;;
40515;SDS011;26216;53.724;9.898;2023-02-01T16:03:28;21.42;;;6.93;;
40515;SDS011;26216;53.724;9.898;2023-02-01T16:06:00;30.05;;;11.65;;
40515;SDS011;26216;53.724;9.898;2023-02-01T16:08:30;24.63;;;8.68;;
40515;SDS011;26216;53.724;9.898;2023-02-01T16:13:34;18.75;;;4.50;;
40515;SDS011;26216;53.724;9.898;2023-02-01T16:16:01;17.92;;;4.18;;
40515;SDS011;26216;53.724;9.898;2023-02-01T16:18:29;16.42;;;3.53;;
40515;SDS011;26216;53.724;9.898;2023-02-01T16:20:54;18.75;;;3.75;;
40515;SDS011;26216;53.724;9.898;2023-02-01T16:23:21;15.27;;;3.28;;
40515;SDS011;26216;53.724;9.898;2023-02-01T16:25:47;20.38;;;4.22;;
40515;SDS011;26216;53.724;9.898;2023-02-01T16:28:19;26.90;;;4.85;;
40515;SDS011;26216;53.724;9.898;2023-02-01T16:30:47;23.42;;;4.32;;
40515;SDS011;26216;53.724;9.898;2023-02-01T16:33:16;28.10;;;4.88;;
40515;SDS011;26216;53.724;9.898;2023-02-01T16:35:45;24.52;;;5.10;;
40515;SDS011;26216;53.724;9.898;2023-02-01T16:38:12;22.70;;;4.50;;
40515;SDS011;26216;53.724;9.898;2023-02-01T16:40:44;20.98;;;4.70;;
40515;SDS011;26216;53.724;9.898;2023-02-01T16:43:21;20.77;;;5.30;;
40515;SDS011;26216;53.724;9.898;2023-02-01T16:45:52;25.73;;;5.47;;
40515;SDS011;26216;53.724;9.898;2023-02-01T16:48:25;20.02;;;4.57;;
40515;SDS011;26216;53.724;9.898;2023-02-01T16:51:09;17.40;;;4.90;;
40515;SDS011;26216;53.724;9.898;2023-02-01T16:53:38;25.33;;;6.18;;
40515;SDS011;26216;53.724;9.898;2023-02-01T16:56:15;23.83;;;5.45;;
40515;SDS011;26216;53.724;9.898;2023-02-01T16:58:41;36.72;;;6.03;;
40515;SDS011;26216;53.724;9.898;2023-02-01T17:01:11;19.83;;;4.47;;
40515;SDS011;26216;53.724;9.898;2023-02-01T17:03:41;25.75;;;5.40;;
40515;SDS011;26216;53.724;9.898;2023-02-01T17:06:10;22.50;;;4.13;;
40515;SDS011;26216;53.724;9.898;2023-02-01T17:08:41;31.88;;;5.65;;
40515;SDS011;26216;53.724;9.898;2023-02-01T17:11:10;20.58;;;5.00;;
40515;SDS011;26216;53.724;9.898;2023-02-01T17:13:38;27.23;;;5.38;;
40515;SDS011;26216;53.724;9.898;2023-02-01T17:16:15;21.08;;;3.72;;
40515;SDS011;26216;53.724;9.898;2023-02-01T17:18:54;24.70;;;4.63;;
40515;SDS011;26216;53.724;9.898;2023-02-01T17:21:24;23.67;;;5.17;;
40515;SDS011;26216;53.724;9.898;2023-02-01T17:23:52;18.80;;;4.05;;
40515;SDS011;26216;53.724;9.898;2023-02-01T17:26:19;28.38;;;4.80;;
40515;SDS011;26216;53.724;9.898;2023-02-01T17:28:46;26.00;;;5.75;;
40515;SDS011;26216;53.724;9.898;2023-02-01T17:31:12;24.90;;;5.38;;
40515;SDS011;26216;53.724;9.898;2023-02-01T17:33:40;24.42;;;4.85;;
40515;SDS011;26216;53.724;9.898;2023-02-01T17:36:15;17.55;;;4.18;;
40515;SDS011;26216;53.724;9.898;2023-02-01T17:38:42;15.48;;;3.80;;
40515;SDS011;26216;53.724;9.898;2023-02-01T17:41:09;25.67;;;5.20;;
40515;SDS011;26216;53.724;9.898;2023-02-01T17:43:36;21.65;;;4.55;;
40515;SDS011;26216;53.724;9.898;2023-02-01T17:48:39;28.48;;;5.15;;
40515;SDS011;26216;53.724;9.898;2023-02-01T17:51:13;21.20;;;4.68;;
40515;SDS011;26216;53.724;9.898;2023-02-01T17:53:44;20.33;;;3.85;;
40515;SDS011;26216;53.724;9.898;2023-02-01T17:56:17;32.88;;;5.47;;
40515;SDS011;26216;53.724;9.898;2023-02-01T17:58:45;28.48;;;5.22;;
40515;SDS011;26216;53.724;9.898;2023-02-01T18:01:13;21.60;;;5.22;;
40515;SDS011;26216;53.724;9.898;2023-02-01T18:03:41;23.58;;;5.28;;
40515;SDS011;26216;53.724;9.898;2023-02-01T18:06:15;28.15;;;6.45;;
40515;SDS011;26216;53.724;9.898;2023-02-01T18:08:43;26.92;;;4.75;;
40515;SDS011;26216;53.724;9.898;2023-02-01T18:11:30;33.80;;;5.82;;
40515;SDS011;26216;53.724;9.898;2023-02-01T18:13:57;23.80;;;4.95;;
40515;SDS011;26216;53.724;9.898;2023-02-01T18:16:25;22.83;;;4.88;;
40515;SDS011;26216;53.724;9.898;2023-02-01T18:19:01;30.17;;;7.78;;